Time;durP1;ratioP1;P1;durP2;ratioP2;P2;SDS_P1;SDS_P2;PMS_P1;PMS_P2;Temp;Humidity;BMP_temperature;BMP_pressure;BME280_temperature;BME280_humidity;BME280_pressure;Samples;Min_cycle;Max_cycle;Signal;HPM_P1;HPM_P2
2023/08/03 00:00:34;;;;;;;17.02;3.03;;;18.30;61.20;;;;;;5014402;28;20026;-71
2023/08/03 00:03:00;;;;;;;16.27;3.47;;;18.40;60.40;;;;;;5014199;28;20030;-73
2023/08/03 00:05:25;;;;;;;12.38;3.08;;;18.40;60.50;;;;;;5013824;28;20149;-72
2023/08/03 00:07:51;;;;;;;14.70;3.13;;;18.30;61.50;;;;;;5013651;28;20030;-72
2023/08/03 00:10:18;;;;;;;9.38;2.70;;;18.30;60.60;;;;;;5013847;28;20077;-72
2023/08/03 00:12:45;;;;;;;10.32;2.70;;;18.20;60.00;;;;;;5014050;28;20022;-75
2023/08/03 00:15:12;;;;;;;9.32;2.35;;;18.20;60.10;;;;;;5013960;28;20084;-72
2023/08/03 00:17:38;;;;;;;10.88;3.00;;;18.20;59.70;;;;;;5013960;28;20057;-74
2023/08/03 00:20:05;;;;;;;14.05;2.50;;;18.20;59.30;;;;;;5014009;28;20069;-72
2023/08/03 00:22:34;;;;;;;10.35;2.70;;;18.10;59.30;;;;;;5013884;28;20030;-75
2023/08/03 00:25:00;;;;;;;8.88;2.70;;;18.20;59.40;;;;;;5013759;28;20083;-72
2023/08/03 00:27:26;;;;;;;8.65;2.45;;;18.10;58.80;;;;;;5013883;28;20040;-71
2023/08/03 00:29:52;;;;;;;7.78;2.40;;;18.10;58.90;;;;;;5013754;28;20163;-72
2023/08/03 00:32:18;;;;;;;9.25;2.55;;;18.10;58.40;;;;;;4996034;28;20112;-72
2023/08/03 00:34:44;;;;;;;6.50;2.08;;;18.10;58.00;;;;;;5013886;28;20026;-72
2023/08/03 00:37:11;;;;;;;7.82;2.30;;;18.10;57.90;;;;;;5013629;28;20402;-74
2023/08/03 00:39:37;;;;;;;12.60;2.75;;;18.10;58.30;;;;;;5013755;28;20065;-71
2023/08/03 00:42:04;;;;;;;8.60;2.67;;;18.10;58.40;;;;;;5013558;28;20418;-72
2023/08/03 00:44:29;;;;;;;9.68;2.45;;;18.00;58.20;;;;;;5013518;28;20379;-73
2023/08/03 00:46:55;;;;;;;13.23;2.60;;;18.00;58.10;;;;;;5013540;28;20022;-72
2023/08/03 00:49:21;;;;;;;8.85;2.42;;;18.00;58.10;;;;;;5013692;28;20543;-71
2023/08/03 00:51:47;;;;;;;7.35;2.40;;;18.00;57.40;;;;;;5013509;28;20113;-73
2023/08/03 00:54:12;;;;;;;11.23;2.15;;;18.00;57.70;;;;;;5020354;28;20049;-72
2023/08/03 00:56:38;;;;;;;11.43;2.72;;;18.00;57.20;;;;;;5014075;28;20022;-72
2023/08/03 00:59:04;;;;;;;6.15;1.77;;;18.00;57.90;;;;;;5013576;28;20446;-73
2023/08/03 01:01:30;;;;;;;9.48;2.22;;;18.00;57.70;;;;;;5013289;28;20044;-74
2023/08/03 01:03:56;;;;;;;13.60;2.80;;;18.00;57.80;;;;;;5013428;28;20037;-72
2023/08/03 01:06:22;;;;;;;11.90;2.70;;;18.00;57.70;;;;;;5013699;28;20069;-71
2023/08/03 01:08:48;;;;;;;11.85;2.85;;;17.90;57.60;;;;;;5013334;28;20022;-71
2023/08/03 01:11:13;;;;;;;11.30;2.45;;;17.90;57.80;;;;;;5012987;28;20355;-71
2023/08/03 01:13:39;;;;;;;11.02;2.60;;;17.90;58.10;;;;;;5013244;28;20034;-73
2023/08/03 01:16:09;;;;;;;10.75;2.65;;;17.90;57.60;;;;;;5013515;28;20033;-73
2023/08/03 01:18:35;;;;;;;13.23;2.63;;;17.90;57.80;;;;;;5013116;28;20049;-72
2023/08/03 01:21:03;;;;;;;8.77;2.63;;;17.90;57.80;;;;;;5012818;28;20109;-72
2023/08/03 01:23:28;;;;;;;7.28;2.08;;;17.90;58.00;;;;;;5013122;28;20030;-72
2023/08/03 01:25:54;;;;;;;6.93;2.10;;;17.90;58.20;;;;;;5013092;28;20471;-72
2023/08/03 01:28:19;;;;;;;7.90;2.38;;;17.90;58.30;;;;;;5012992;28;20097;-72
2023/08/03 01:30:45;;;;;;;10.60;3.10;;;17.90;58.00;;;;;;5012929;28;20054;-72
2023/08/03 01:33:10;;;;;;;12.00;2.45;;;17.80;58.00;;;;;;5013017;28;20061;-72
2023/08/03 01:35:36;;;;;;;10.38;2.83;;;17.80;58.50;;;;;;5013030;28;20037;-74
2023/08/03 01:38:01;;;;;;;10.10;2.70;;;17.80;58.50;;;;;;5013128;28;20322;-72
2023/08/03 01:40:27;;;;;;;11.43;2.63;;;17.80;58.40;;;;;;5012841;28;20452;-72
2023/08/03 01:42:52;;;;;;;10.60;2.50;;;17.70;59.00;;;;;;5012731;28;20037;-73
2023/08/03 01:45:18;;;;;;;7.38;2.20;;;17.70;58.50;;;;;;5012519;28;20046;-73
2023/08/03 01:47:44;;;;;;;9.88;2.03;;;17.70;58.50;;;;;;5012943;28;20466;-72
2023/08/03 01:50:09;;;;;;;10.90;2.58;;;17.70;58.80;;;;;;5012926;28;20467;-72
2023/08/03 01:52:36;;;;;;;9.38;2.22;;;17.70;58.10;;;;;;5012817;28;20041;-72
2023/08/03 01:55:01;;;;;;;8.18;1.92;;;17.60;59.20;;;;;;5012912;28;20018;-72
2023/08/03 01:57:27;;;;;;;8.85;2.25;;;17.60;58.20;;;;;;5012977;28;20061;-72
2023/08/03 01:59:52;;;;;;;10.93;3.17;;;17.60;58.40;;;;;;5012625;28;20030;-72
2023/08/03 02:02:18;;;;;;;8.75;2.42;;;17.60;58.70;;;;;;5012696;28;20124;-72
2023/08/03 02:04:44;;;;;;;10.85;2.42;;;17.60;58.30;;;;;;5012586;28;20194;-72
2023/08/03 02:07:18;;;;;;;8.80;2.28;;;17.60;58.10;;;;;;5012690;28;20033;-71
2023/08/03 02:09:43;;;;;;;9.15;2.67;;;17.70;57.50;;;;;;5012702;28;20026;-71
2023/08/03 02:12:09;;;;;;;6.70;2.20;;;17.70;57.40;;;;;;5012577;28;20482;-71
2023/08/03 02:14:35;;;;;;;11.75;2.63;;;17.60;57.80;;;;;;5012693;28;20105;-76
2023/08/03 02:17:01;;;;;;;11.40;2.45;;;17.70;58.10;;;;;;5012633;28;20110;-75
2023/08/03 02:19:26;;;;;;;8.90;2.47;;;17.70;57.90;;;;;;5012686;28;20029;-75
2023/08/03 02:21:52;;;;;;;9.55;2.05;;;17.70;57.50;;;;;;4994573;28;20048;-75
2023/08/03 02:24:17;;;;;;;6.95;1.92;;;17.70;57.50;;;;;;5012756;28;20053;-78
2023/08/03 02:26:43;;;;;;;7.68;2.38;;;17.70;57.70;;;;;;5028719;28;20052;-73
2023/08/03 02:29:09;;;;;;;6.90;2.10;;;17.70;57.20;;;;;;5032029;28;20052;-78
2023/08/03 02:31:34;;;;;;;6.85;2.20;;;17.60;57.40;;;;;;5032975;28;20021;-73
2023/08/03 02:34:00;;;;;;;6.25;1.83;;;17.70;57.40;;;;;;5035701;28;20455;-72
2023/08/03 02:36:25;;;;;;;10.23;2.10;;;17.60;57.50;;;;;;5035689;28;20100;-71
2023/08/03 02:38:51;;;;;;;9.05;2.45;;;17.60;57.60;;;;;;5035635;28;20493;-72
2023/08/03 02:41:17;;;;;;;9.98;2.00;;;17.50;58.30;;;;;;5035562;28;20061;-72
2023/08/03 02:43:43;;;;;;;4.20;1.42;;;17.40;58.40;;;;;;5035575;28;20034;-72
2023/08/03 02:46:08;;;;;;;8.77;1.90;;;17.40;58.10;;;;;;5035677;28;20032;-72
2023/08/03 02:48:34;;;;;;;14.15;2.00;;;17.50;58.00;;;;;;5035654;28;20044;-71
2023/08/03 02:50:59;;;;;;;5.57;1.60;;;17.40;58.20;;;;;;5036001;28;20129;-77
2023/08/03 02:53:25;;;;;;;4.43;1.70;;;17.40;58.80;;;;;;5035723;28;20021;-80
2023/08/03 02:55:51;;;;;;;8.25;1.88;;;17.50;58.00;;;;;;5035462;28;20035;-80
2023/08/03 02:58:17;;;;;;;9.18;1.98;;;17.40;58.00;;;;;;5035717;28;20025;-78
2023/08/03 03:00:42;;;;;;;5.55;1.88;;;17.40;58.40;;;;;;5035477;28;20060;-81
2023/08/03 03:03:08;;;;;;;10.93;1.63;;;17.40;58.50;;;;;;5035222;28;20037;-73
2023/08/03 03:05:34;;;;;;;4.88;1.30;;;17.30;58.40;;;;;;5035147;28;20045;-75
2023/08/03 03:07:59;;;;;;;5.43;1.30;;;17.30;58.90;;;;;;5035262;28;20021;-72
2023/08/03 03:10:25;;;;;;;5.78;1.40;;;17.30;58.50;;;;;;5035048;28;20521;-72
2023/08/03 03:12:50;;;;;;;3.45;1.35;;;17.30;59.00;;;;;;5035158;28;20108;-71
2023/08/03 03:15:16;;;;;;;6.47;1.67;;;17.30;59.40;;;;;;5034774;28;20040;-72
2023/08/03 03:17:42;;;;;;;6.65;1.60;;;17.20;59.60;;;;;;5035004;28;20018;-72
2023/08/03 03:20:09;;;;;;;7.57;1.80;;;17.10;60.00;;;;;;5034899;28;20024;-72
2023/08/03 03:22:37;;;;;;;8.40;1.75;;;17.20;60.20;;;;;;5034632;28;20034;-74
2023/08/03 03:25:04;;;;;;;6.93;1.30;;;17.10;61.30;;;;;;5034844;28;20028;-78
2023/08/03 03:27:29;;;;;;;9.85;1.83;;;17.10;61.40;;;;;;5034676;28;20042;-79
2023/08/03 03:29:55;;;;;;;5.70;1.50;;;17.00;61.80;;;;;;5034739;28;20036;-74
2023/08/03 03:32:20;;;;;;;8.32;1.70;;;16.90;62.30;;;;;;5034677;28;20028;-74
2023/08/03 03:34:46;;;;;;;6.25;1.50;;;16.90;62.90;;;;;;5034619;28;20038;-72
2023/08/03 03:37:11;;;;;;;5.85;1.60;;;16.80;63.20;;;;;;5034551;28;20052;-73
2023/08/03 03:39:37;;;;;;;7.22;1.45;;;16.90;63.30;;;;;;5034394;28;20053;-72
2023/08/03 03:42:03;;;;;;;7.85;2.13;;;16.80;63.90;;;;;;5034381;28;20034;-73
2023/08/03 03:44:28;;;;;;;8.95;1.70;;;16.70;64.00;;;;;;5034482;28;20018;-74
2023/08/03 03:46:54;;;;;;;7.78;1.70;;;16.70;64.00;;;;;;5034278;28;20021;-72
2023/08/03 03:49:19;;;;;;;8.27;1.67;;;16.70;64.20;;;;;;5034173;28;20478;-72
2023/08/03 03:51:45;;;;;;;5.63;1.52;;;16.70;64.60;;;;;;5034274;28;20053;-73
2023/08/03 03:54:10;;;;;;;6.20;1.77;;;16.60;64.90;;;;;;5034242;28;20138;-72
2023/08/03 03:56:36;;;;;;;8.10;1.65;;;16.60;65.00;;;;;;5034171;28;20032;-79
2023/08/03 03:59:01;;;;;;;6.63;1.52;;;16.50;65.60;;;;;;5016300;28;20485;-72
2023/08/03 04:01:27;;;;;;;13.93;1.92;;;16.60;65.50;;;;;;5034276;28;20029;-73
2023/08/03 04:03:52;;;;;;;4.10;1.33;;;16.50;65.80;;;;;;5033896;28;20038;-72
2023/08/03 04:06:18;;;;;;;7.55;1.60;;;16.50;66.30;;;;;;5033958;28;20071;-73
2023/08/03 04:08:43;;;;;;;8.02;1.67;;;16.30;67.30;;;;;;5033966;28;20147;-72
2023/08/03 04:11:09;;;;;;;4.75;1.25;;;16.30;67.80;;;;;;5016147;28;20022;-72
2023/08/03 04:13:34;;;;;;;4.93;1.45;;;16.30;68.20;;;;;;5033816;28;20485;-72
2023/08/03 04:16:00;;;;;;;5.25;1.50;;;16.20;68.90;;;;;;5033834;28;20029;-72
2023/08/03 04:18:27;;;;;;;6.03;1.60;;;16.20;68.40;;;;;;5033623;28;20033;-72
2023/08/03 04:20:53;;;;;;;5.32;1.20;;;16.20;67.90;;;;;;5033797;28;20063;-81
2023/08/03 04:23:19;;;;;;;5.03;1.30;;;16.20;66.80;;;;;;5033621;28;20037;-73
2023/08/03 04:25:44;;;;;;;4.57;1.40;;;16.20;67.20;;;;;;5033503;28;20025;-72
2023/08/03 04:28:10;;;;;;;4.63;1.30;;;16.20;67.00;;;;;;5033780;28;20439;-72
2023/08/03 04:30:35;;;;;;;7.03;1.55;;;16.20;66.70;;;;;;5033535;28;20029;-73
2023/08/03 04:33:01;;;;;;;4.32;1.10;;;16.20;66.90;;;;;;5033620;28;20108;-73
2023/08/03 04:35:26;;;;;;;5.18;1.25;;;16.20;66.10;;;;;;5033843;28;20072;-72
2023/08/03 04:37:52;;;;;;;5.45;1.63;;;16.20;65.90;;;;;;5034429;28;20135;-71
2023/08/03 04:40:17;;;;;;;4.03;1.20;;;16.30;64.50;;;;;;5035759;28;20034;-73
2023/08/03 04:42:43;;;;;;;3.53;1.20;;;16.30;64.40;;;;;;5033421;28;20072;-72
2023/08/03 04:45:09;;;;;;;5.03;0.98;;;16.40;63.80;;;;;;5033359;28;20072;-72
2023/08/03 04:47:34;;;;;;;8.27;1.55;;;16.40;63.70;;;;;;5033345;28;20033;-72
2023/08/03 04:50:00;;;;;;;3.47;1.20;;;16.40;63.70;;;;;;5015640;28;20047;-72
2023/08/03 04:52:25;;;;;;;5.30;1.38;;;16.40;63.70;;;;;;5033330;28;20153;-72
2023/08/03 04:54:51;;;;;;;6.15;1.25;;;16.50;63.40;;;;;;5015016;28;20022;-72
2023/08/03 04:57:16;;;;;;;4.45;1.35;;;16.50;62.90;;;;;;5033388;28;20086;-80
2023/08/03 04:59:42;;;;;;;4.30;1.25;;;16.50;62.30;;;;;;5038466;28;20026;-80
2023/08/03 05:02:07;;;;;;;4.95;1.50;;;16.50;62.60;;;;;;5047592;28;20056;-79
2023/08/03 05:04:33;;;;;;;6.18;1.20;;;16.50;61.90;;;;;;5042240;28;20046;-80
2023/08/03 05:06:58;;;;;;;5.85;1.35;;;16.50;61.50;;;;;;5033783;28;20415;-80
2023/08/03 05:09:24;;;;;;;5.38;1.77;;;16.60;60.90;;;;;;5033352;28;20482;-80
2023/08/03 05:11:50;;;;;;;4.03;1.27;;;16.60;60.70;;;;;;5033326;28;20094;-80
2023/08/03 05:14:15;;;;;;;4.50;1.08;;;16.70;60.20;;;;;;5033434;28;20026;-80
2023/08/03 05:16:41;;;;;;;3.60;1.30;;;16.70;59.80;;;;;;5033105;28;20030;-72
2023/08/03 05:19:06;;;;;;;7.05;1.10;;;16.70;59.80;;;;;;5032697;28;20136;-71
2023/08/03 05:21:32;;;;;;;5.25;1.60;;;16.70;60.10;;;;;;5032627;28;20037;-72
2023/08/03 05:23:57;;;;;;;4.18;0.90;;;16.70;59.80;;;;;;5032832;28;20577;-72
2023/08/03 05:26:23;;;;;;;5.70;1.25;;;16.70;59.90;;;;;;5032967;28;20017;-71
2023/08/03 05:28:48;;;;;;;8.00;2.10;;;16.70;59.90;;;;;;5032927;28;20401;-76
2023/08/03 05:31:14;;;;;;;6.40;1.42;;;16.70;59.70;;;;;;5032763;28;20025;-72
2023/08/03 05:33:39;;;;;;;4.82;1.20;;;16.70;60.30;;;;;;5032597;28;20026;-73
2023/08/03 05:36:05;;;;;;;6.15;1.35;;;16.70;60.20;;;;;;5032685;28;20092;-72
2023/08/03 05:38:30;;;;;;;6.05;1.38;;;16.70;60.50;;;;;;5014811;28;20116;-72
2023/08/03 05:40:56;;;;;;;6.93;1.73;;;16.60;60.70;;;;;;5032589;28;20033;-72
2023/08/03 05:43:24;;;;;;;5.47;1.13;;;16.60;60.80;;;;;;5032579;28;20116;-73
2023/08/03 05:45:54;;;;;;;5.70;1.63;;;16.60;61.20;;;;;;5032584;28;20057;-73
2023/08/03 05:48:20;;;;;;;7.28;1.10;;;16.70;61.50;;;;;;5032612;28;20111;-73
2023/08/03 05:50:54;;;;;;;3.45;1.48;;;16.70;61.40;;;;;;5032471;28;20029;-74
2023/08/03 05:53:19;;;;;;;4.00;1.17;;;16.60;61.70;;;;;;5032441;28;20021;-73
2023/08/03 05:55:45;;;;;;;4.35;1.20;;;16.70;62.00;;;;;;5032804;28;20386;-72
2023/08/03 05:58:16;;;;;;;6.93;1.30;;;16.70;61.60;;;;;;5014475;28;20478;-73
2023/08/03 06:00:49;;;;;;;6.40;1.00;;;16.60;61.20;;;;;;5032382;28;20034;-74
2023/08/03 06:03:18;;;;;;;4.25;1.15;;;16.60;61.00;;;;;;5032399;28;20403;-74
2023/08/03 06:05:48;;;;;;;4.90;1.02;;;16.60;61.50;;;;;;5032248;28;20124;-72
2023/08/03 06:08:24;;;;;;;5.47;1.33;;;16.70;61.00;;;;;;5035864;28;20474;-73
2023/08/03 06:10:52;;;;;;;6.70;1.30;;;16.80;61.40;;;;;;5036037;28;20021;-72
2023/08/03 06:13:20;;;;;;;5.82;0.90;;;16.90;60.80;;;;;;5036127;28;20122;-73
2023/08/03 06:15:47;;;;;;;6.65;1.10;;;16.90;61.00;;;;;;5036202;28;20028;-73
2023/08/03 06:18:17;;;;;;;4.00;1.30;;;17.00;61.00;;;;;;5035914;28;20524;-73
2023/08/03 06:20:48;;;;;;;6.10;1.55;;;17.00;60.60;;;;;;5018151;28;20026;-74
2023/08/03 06:23:17;;;;;;;3.78;0.93;;;16.90;60.70;;;;;;5036022;28;20034;-75
2023/08/03 06:25:43;;;;;;;5.00;1.50;;;16.90;60.40;;;;;;5020234;28;20096;-73
2023/08/03 06:28:10;;;;;;;4.55;0.90;;;16.90;60.30;;;;;;5038092;28;20547;-80
2023/08/03 06:30:36;;;;;;;6.15;1.10;;;17.00;59.70;;;;;;5035598;28;20497;-74
2023/08/03 06:33:02;;;;;;;4.13;0.80;;;17.10;59.60;;;;;;5035225;28;20038;-73
2023/08/03 06:35:37;;;;;;;5.32;1.17;;;17.20;59.00;;;;;;5035656;28;20017;-74
2023/08/03 06:38:04;;;;;;;5.78;1.15;;;17.30;59.80;;;;;;5020904;28;20033;-76
2023/08/03 06:40:30;;;;;;;4.53;1.00;;;17.60;58.50;;;;;;5036491;28;20021;-76
2023/08/03 06:42:56;;;;;;;3.55;1.00;;;17.70;57.30;;;;;;5017737;28;20037;-75
2023/08/03 06:45:21;;;;;;;6.18;1.30;;;17.80;57.20;;;;;;5017847;28;20515;-75
2023/08/03 06:47:48;;;;;;;4.80;1.20;;;17.70;55.70;;;;;;5017966;28;20083;-76
2023/08/03 06:50:14;;;;;;;4.78;1.10;;;17.60;56.20;;;;;;5018215;28;20096;-79
2023/08/03 06:52:39;;;;;;;2.60;0.70;;;17.50;55.80;;;;;;5001774;28;20040;-78
2023/08/03 06:55:05;;;;;;;3.45;0.70;;;17.50;56.30;;;;;;5018134;28;20036;-79
2023/08/03 06:57:31;;;;;;;3.25;0.80;;;17.50;56.20;;;;;;5018470;28;20460;-78
2023/08/03 06:59:57;;;;;;;1.83;0.73;;;17.40;55.90;;;;;;5017497;28;20045;-79
2023/08/03 07:02:24;;;;;;;1.90;0.73;;;17.40;56.40;;;;;;5017997;28;20080;-79
2023/08/03 07:04:50;;;;;;;3.75;0.90;;;17.50;56.20;;;;;;5018200;28;20042;-84
2023/08/03 07:07:16;;;;;;;2.97;0.90;;;17.60;55.80;;;;;;5019375;28;20030;-85
2023/08/03 07:09:48;;;;;;;3.38;0.82;;;17.60;56.10;;;;;;5018425;28;20505;-80
2023/08/03 07:12:14;;;;;;;2.63;0.70;;;17.40;56.20;;;;;;5018547;28;20022;-82
2023/08/03 07:14:41;;;;;;;4.57;0.82;;;17.50;56.60;;;;;;5035882;28;20374;-79
2023/08/03 07:17:08;;;;;;;3.33;0.60;;;17.60;55.90;;;;;;5018259;28;20133;-80
2023/08/03 07:19:35;;;;;;;3.50;0.65;;;17.70;56.40;;;;;;5021468;28;20026;-88
2023/08/03 07:22:01;;;;;;;3.70;1.00;;;17.70;55.60;;;;;;5044711;28;20094;-90
2023/08/03 07:24:28;;;;;;;4.18;1.10;;;17.70;55.60;;;;;;5028950;28;20037;-90
2023/08/03 07:26:54;;;;;;;3.72;0.90;;;17.80;55.30;;;;;;5020813;28;20021;-90
2023/08/03 07:29:20;;;;;;;2.97;0.85;;;17.90;55.40;;;;;;5020242;28;20021;-89
2023/08/03 07:31:48;;;;;;;4.38;1.10;;;18.00;54.40;;;;;;5019471;28;20021;-87
2023/08/03 07:34:14;;;;;;;4.20;0.75;;;18.10;55.10;;;;;;5019314;28;20492;-89
2023/08/03 07:36:41;;;;;;;4.50;1.00;;;18.10;53.90;;;;;;5018574;28;20022;-87
2023/08/03 07:39:06;;;;;;;3.00;0.82;;;18.00;54.70;;;;;;5019171;28;20102;-86
2023/08/03 07:41:32;;;;;;;3.42;0.88;;;18.00;53.50;;;;;;5018998;28;20489;-88
2023/08/03 07:43:59;;;;;;;4.78;1.05;;;18.10;54.50;;;;;;5036769;28;20021;-88
2023/08/03 07:46:25;;;;;;;3.47;1.08;;;18.30;53.00;;;;;;5020222;28;20026;-72
2023/08/03 07:48:50;;;;;;;3.88;0.98;;;18.30;53.00;;;;;;5036816;28;20532;-72
2023/08/03 07:51:17;;;;;;;3.42;0.80;;;18.20;52.70;;;;;;5006381;28;20033;-72
2023/08/03 07:53:43;;;;;;;6.05;0.85;;;18.20;53.40;;;;;;5015784;28;20028;-73
2023/08/03 07:56:22;;;;;;;7.18;1.42;;;18.30;53.20;;;;;;4996462;28;20113;-74
2023/08/03 07:58:49;;;;;;;3.20;0.80;;;18.20;52.60;;;;;;5014125;28;20042;-71
2023/08/03 08:01:15;;;;;;;3.17;0.80;;;18.10;53.40;;;;;;5014274;28;20054;-76
2023/08/03 08:03:41;;;;;;;4.80;0.70;;;18.00;53.40;;;;;;5013734;28;20459;-72
2023/08/03 08:06:20;;;;;;;3.13;0.90;;;18.00;54.10;;;;;;5014214;28;20021;-72
2023/08/03 08:08:47;;;;;;;5.22;0.88;;;18.00;53.30;;;;;;5014100;28;20371;-72
2023/08/03 08:11:16;;;;;;;3.50;0.95;;;18.00;53.70;;;;;;4996581;28;20101;-72
2023/08/03 08:13:42;;;;;;;4.97;0.80;;;18.00;53.20;;;;;;5014011;28;20541;-72
2023/08/03 08:16:09;;;;;;;3.13;0.73;;;17.90;54.00;;;;;;5013770;28;20072;-72
2023/08/03 08:18:36;;;;;;;4.10;0.90;;;18.00;53.90;;;;;;5013741;28;20034;-72
2023/08/03 08:21:04;;;;;;;5.28;1.05;;;18.00;53.90;;;;;;5013643;28;20021;-72
2023/08/03 08:23:30;;;;;;;5.85;1.30;;;18.00;54.20;;;;;;5013553;28;20482;-72
2023/08/03 08:25:56;;;;;;;4.53;0.98;;;17.90;54.80;;;;;;5013895;28;20034;-72
2023/08/03 08:28:22;;;;;;;5.47;0.80;;;18.00;54.50;;;;;;4995979;28;20034;-72
2023/08/03 08:30:48;;;;;;;2.00;0.47;;;17.90;55.00;;;;;;5012963;28;20029;-74
2023/08/03 08:33:16;;;;;;;5.88;1.30;;;18.10;54.80;;;;;;5013763;28;20042;-73
2023/08/03 08:35:42;;;;;;;3.97;0.95;;;18.10;54.90;;;;;;5013627;28;20038;-72
2023/08/03 08:38:12;;;;;;;2.08;0.50;;;18.30;54.00;;;;;;5013629;28;20022;-73
2023/08/03 08:40:39;;;;;;;1.20;0.50;;;18.40;53.30;;;;;;5013822;28;20025;-72
2023/08/03 08:43:05;;;;;;;3.60;1.10;;;18.40;53.00;;;;;;5013627;28;20069;-72
2023/08/03 08:45:34;;;;;;;5.85;0.60;;;18.50;52.30;;;;;;5013313;28;20089;-72
2023/08/03 08:48:00;;;;;;;2.75;0.85;;;18.50;52.00;;;;;;5013276;28;20025;-72
2023/08/03 08:50:26;;;;;;;3.03;0.82;;;18.60;51.60;;;;;;5013523;28;20036;-72
2023/08/03 08:52:53;;;;;;;4.03;0.80;;;18.80;52.10;;;;;;4995479;28;20026;-71
2023/08/03 08:55:22;;;;;;;4.53;0.80;;;18.90;51.80;;;;;;5013213;28;20109;-73
2023/08/03 08:57:47;;;;;;;3.50;1.10;;;18.90;51.60;;;;;;5013164;28;20029;-71
2023/08/03 09:00:14;;;;;;;1.58;0.60;;;19.10;51.80;;;;;;5012797;28;20391;-73
2023/08/03 09:02:39;;;;;;;1.85;0.50;;;19.20;51.00;;;;;;5012902;28;20041;-74
2023/08/03 09:05:24;;;;;;;1.83;0.73;;;19.10;51.10;;;;;;5013120;28;20149;-75
2023/08/03 09:08:03;;;;;;;2.87;0.40;;;19.20;51.00;;;;;;5013180;28;20026;-74
2023/08/03 09:10:29;;;;;;;3.85;0.80;;;19.10;51.00;;;;;;5013041;28;20041;-73
2023/08/03 09:12:55;;;;;;;3.63;0.60;;;19.00;51.60;;;;;;5015068;28;20022;-74
2023/08/03 09:15:40;;;;;;;2.53;0.65;;;19.10;51.80;;;;;;5013228;28;20384;-72
2023/08/03 09:18:07;;;;;;;1.85;0.60;;;19.10;51.70;;;;;;5013233;28;20025;-73
2023/08/03 09:20:33;;;;;;;2.42;0.50;;;19.00;51.50;;;;;;5012862;28;20034;-73
2023/08/03 09:23:00;;;;;;;2.45;0.63;;;18.90;51.70;;;;;;5012794;28;20030;-73
2023/08/03 09:25:26;;;;;;;4.65;0.90;;;19.00;52.40;;;;;;5012736;28;20026;-74
2023/08/03 09:27:54;;;;;;;2.38;0.63;;;18.90;52.00;;;;;;5012930;28;20024;-73
2023/08/03 09:30:21;;;;;;;3.83;0.57;;;18.70;52.60;;;;;;5012576;28;20021;-73
2023/08/03 09:32:47;;;;;;;2.55;0.65;;;18.50;53.60;;;;;;5012887;28;20025;-74
2023/08/03 09:35:16;;;;;;;3.45;0.80;;;18.40;53.80;;;;;;5012589;28;20041;-73
2023/08/03 09:37:42;;;;;;;3.90;0.80;;;18.30;54.40;;;;;;5012698;28;20022;-73
2023/08/03 09:40:08;;;;;;;3.75;0.90;;;18.20;54.90;;;;;;5012525;28;20080;-73
2023/08/03 09:42:35;;;;;;;2.55;0.70;;;18.00;55.20;;;;;;5016556;28;20044;-73
2023/08/03 09:45:02;;;;;;;4.68;0.80;;;18.10;55.30;;;;;;5016675;28;20033;-73
2023/08/03 09:47:30;;;;;;;6.28;1.10;;;18.00;55.60;;;;;;5016888;28;20026;-73
2023/08/03 09:49:56;;;;;;;3.42;0.88;;;18.00;57.70;;;;;;5016625;28;20125;-73
2023/08/03 09:52:26;;;;;;;3.50;0.65;;;18.00;58.40;;;;;;5016425;28;20112;-74
2023/08/03 09:54:56;;;;;;;2.55;0.70;;;18.20;56.00;;;;;;4998866;28;20022;-73
2023/08/03 09:57:24;;;;;;;4.22;1.08;;;18.30;56.20;;;;;;5016333;28;20030;-76
2023/08/03 09:59:55;;;;;;;2.53;0.70;;;18.30;55.40;;;;;;5016350;28;20356;-73
2023/08/03 10:02:23;;;;;;;3.55;0.90;;;18.30;55.80;;;;;;5016065;28;20044;-73
2023/08/03 10:04:51;;;;;;;4.57;1.02;;;18.10;55.80;;;;;;5015935;28;20050;-72
2023/08/03 10:07:20;;;;;;;1.35;0.75;;;18.20;55.60;;;;;;5016336;28;20113;-74
2023/08/03 10:09:50;;;;;;;2.70;0.63;;;18.50;55.50;;;;;;5018476;28;20277;-72
2023/08/03 10:12:24;;;;;;;2.85;0.77;;;18.80;54.30;;;;;;5014694;28;20038;-72
2023/08/03 10:14:52;;;;;;;1.48;0.40;;;18.70;53.50;;;;;;5015243;28;20064;-71
2023/08/03 10:17:18;;;;;;;2.30;0.52;;;18.70;53.10;;;;;;5024012;28;20026;-72
2023/08/03 10:19:45;;;;;;;4.43;0.80;;;18.70;52.70;;;;;;5026484;28;20111;-72
2023/08/03 10:22:11;;;;;;;4.43;0.90;;;18.70;52.60;;;;;;5023984;28;20029;-72
2023/08/03 10:24:37;;;;;;;1.98;0.68;;;18.80;53.00;;;;;;5026305;28;20025;-72
2023/08/03 10:27:19;;;;;;;1.52;0.60;;;19.20;51.60;;;;;;5023772;28;20049;-76
2023/08/03 10:29:55;;;;;;;0.85;0.50;;;19.50;50.70;;;;;;5024597;28;20022;-73
2023/08/03 10:32:27;;;;;;;2.58;0.73;;;19.60;50.70;;;;;;5035887;28;20112;-72
2023/08/03 10:34:56;;;;;;;3.63;0.68;;;19.60;49.50;;;;;;5035206;28;20024;-73
2023/08/03 10:37:22;;;;;;;1.77;0.60;;;19.70;49.70;;;;;;5038171;28;20041;-72
2023/08/03 10:40:00;;;;;;;3.95;0.75;;;19.70;50.10;;;;;;5035366;28;20029;-72
2023/08/03 10:42:35;;;;;;;2.28;0.47;;;19.90;50.80;;;;;;5035345;28;20088;-72
2023/08/03 10:45:22;;;;;;;2.42;0.75;;;20.40;48.50;;;;;;5030401;28;20425;-72
2023/08/03 10:47:49;;;;;;;1.55;0.50;;;20.30;49.70;;;;;;5035193;28;20493;-78
2023/08/03 10:50:14;;;;;;;2.65;0.60;;;20.30;49.60;;;;;;5035412;28;20101;-72
2023/08/03 10:52:40;;;;;;;4.82;0.70;;;20.30;48.30;;;;;;5034490;28;20172;-73
2023/08/03 10:55:24;;;;;;;2.95;0.68;;;20.30;47.50;;;;;;5034753;28;20017;-73
2023/08/03 10:57:50;;;;;;;2.00;0.80;;;19.90;47.70;;;;;;5035063;28;20029;-72
2023/08/03 11:00:16;;;;;;;2.00;0.60;;;19.70;48.00;;;;;;5035033;28;20090;-76
2023/08/03 11:02:42;;;;;;;5.50;0.63;;;19.80;49.10;;;;;;5034776;28;20037;-78
2023/08/03 11:05:11;;;;;;;1.15;0.65;;;19.90;49.00;;;;;;5035733;28;20450;-76
2023/08/03 11:07:44;;;;;;;1.95;0.50;;;19.90;48.20;;;;;;5034704;28;20493;-73
2023/08/03 11:10:13;;;;;;;4.32;0.88;;;19.90;48.60;;;;;;5030412;28;20541;-70
2023/08/03 11:12:43;;;;;;;2.42;0.57;;;19.80;48.60;;;;;;5016610;28;20367;-73
2023/08/03 11:15:14;;;;;;;3.22;0.85;;;19.90;48.80;;;;;;5033731;28;20510;-72
2023/08/03 11:17:40;;;;;;;1.90;0.50;;;20.10;49.00;;;;;;5033755;28;20069;-77
2023/08/03 11:20:07;;;;;;;2.45;0.75;;;20.40;47.10;;;;;;5033952;28;20056;-72
2023/08/03 11:22:33;;;;;;;1.23;0.50;;;20.70;47.40;;;;;;5013625;28;20038;-73
2023/08/03 11:25:02;;;;;;;1.92;0.52;;;20.90;45.90;;;;;;5025169;28;20018;-77
2023/08/03 11:27:29;;;;;;;2.08;0.60;;;20.90;44.70;;;;;;5012654;28;20057;-71
2023/08/03 11:29:56;;;;;;;2.47;0.80;;;21.20;46.00;;;;;;5022506;28;20024;-72
2023/08/03 11:32:27;;;;;;;2.95;0.77;;;21.50;44.90;;;;;;5018820;28;20014;-73
2023/08/03 11:35:00;;;;;;;1.73;0.63;;;21.60;43.20;;;;;;5018658;28;20029;-74
2023/08/03 11:37:33;;;;;;;2.35;0.60;;;21.40;43.70;;;;;;5021860;28;20053;-74
2023/08/03 11:40:00;;;;;;;2.55;0.45;;;21.40;43.80;;;;;;5003875;28;20052;-75
2023/08/03 11:42:27;;;;;;;2.13;0.40;;;21.00;44.70;;;;;;5024409;28;20038;-74
2023/08/03 11:44:53;;;;;;;1.27;0.60;;;20.90;44.40;;;;;;5020326;28;20025;-77
2023/08/03 11:47:19;;;;;;;1.63;0.60;;;21.30;43.60;;;;;;5019371;28;20030;-76
2023/08/03 11:49:47;;;;;;;2.13;0.40;;;21.60;44.20;;;;;;5001863;28;20021;-73
2023/08/03 11:52:22;;;;;;;2.70;0.38;;;21.80;43.40;;;;;;5013509;28;20029;-73
2023/08/03 11:54:48;;;;;;;1.35;0.60;;;21.90;40.70;;;;;;5031197;28;20096;-76
2023/08/03 11:59:58;;;;;;;2.83;0.80;;;21.80;42.20;;;;;;5027986;28;20093;-72
2023/08/03 12:02:41;;;;;;;3.88;0.80;;;21.80;41.90;;;;;;5023317;28;20116;-73
2023/08/03 12:05:07;;;;;;;1.52;0.38;;;21.70;42.40;;;;;;5022688;28;20045;-73
2023/08/03 12:07:34;;;;;;;2.63;0.60;;;21.50;42.50;;;;;;5021476;28;20068;-78
2023/08/03 12:10:00;;;;;;;0.57;0.30;;;21.60;42.70;;;;;;5014447;28;20100;-78
2023/08/03 12:12:26;;;;;;;1.77;0.60;;;21.40;42.70;;;;;;5022663;28;20057;-83
2023/08/03 12:14:52;;;;;;;3.40;0.70;;;21.70;42.60;;;;;;5024075;28;20029;-82
2023/08/03 12:17:17;;;;;;;1.50;0.40;;;22.10;42.40;;;;;;5024478;28;20022;-81
2023/08/03 12:19:43;;;;;;;1.20;0.50;;;22.20;41.60;;;;;;5022473;28;20022;-77
2023/08/03 12:22:08;;;;;;;2.03;0.40;;;22.30;42.40;;;;;;5023163;28;20520;-70
2023/08/03 12:24:34;;;;;;;1.75;0.60;;;22.60;42.00;;;;;;5024288;28;20438;-73
2023/08/03 12:27:02;;;;;;;1.20;0.50;;;22.30;41.10;;;;;;5025187;28;20020;-73
2023/08/03 12:29:27;;;;;;;2.65;0.47;;;22.00;42.20;;;;;;5021948;28;20026;-73
2023/08/03 12:31:53;;;;;;;4.35;0.55;;;21.90;42.70;;;;;;5030101;28;20492;-75
2023/08/03 12:34:18;;;;;;;4.93;0.57;;;21.80;43.30;;;;;;5032235;28;20458;-73
2023/08/03 12:36:44;;;;;;;1.65;0.38;;;21.70;42.90;;;;;;5033232;28;20030;-76
2023/08/03 12:39:09;;;;;;;1.45;0.40;;;21.40;43.20;;;;;;5033219;28;20359;-74
2023/08/03 12:41:35;;;;;;;1.52;0.45;;;21.60;43.30;;;;;;5033280;28;20029;-77
2023/08/03 12:44:01;;;;;;;1.90;0.55;;;22.10;43.30;;;;;;5033467;28;20520;-78
2023/08/03 12:46:26;;;;;;;1.95;0.40;;;22.40;42.30;;;;;;5033091;28;20505;-75